Time;durP1;ratioP1;P1;durP2;ratioP2;P2;SDS_P1;SDS_P2;PMS_P1;PMS_P2;Temp;Humidity;BMP_temperature;BMP_pressure;BME280_temperature;BME280_humidity;BME280_pressure;Samples;Min_cycle;Max_cycle;Signal;HPM_P1;HPM_P2
2022/08/12 17:50:25;;;;;;;3.70;1.20;;;25.20;42.80;;;;;;5071667;28;20532;-72
2022/08/12 17:52:57;;;;;;;4.70;1.00;;;25.00;43.00;;;;;;5069811;28;20202;-72
2022/08/12 17:55:24;;;;;;;4.28;1.40;;;25.00;43.20;;;;;;5069604;28;20253;-72
2022/08/12 17:57:51;;;;;;;5.97;1.42;;;25.10;42.60;;;;;;5069777;28;20227;-72
2022/08/12 18:00:17;;;;;;;1.50;1.25;;;25.10;42.60;;;;;;5069352;28;20686;-72
2022/08/12 18:02:46;;;;;;;4.00;1.30;;;25.00;42.50;;;;;;5069896;28;20193;-72
2022/08/12 18:05:13;;;;;;;1.25;1.15;;;25.00;42.60;;;;;;5069050;28;20182;-72
2022/08/12 18:07:39;;;;;;;3.42;1.15;;;25.00;42.60;;;;;;5070489;28;20205;-72
2022/08/12 18:10:06;;;;;;;4.95;1.45;;;24.90;42.80;;;;;;5069477;28;20236;-72
2022/08/12 18:12:43;;;;;;;2.70;1.50;;;24.90;42.70;;;;;;5069117;28;20284;-72
2022/08/12 18:15:11;;;;;;;3.53;1.23;;;24.70;43.00;;;;;;5070032;28;20169;-72
2022/08/12 18:17:41;;;;;;;4.03;1.38;;;24.70;43.40;;;;;;5069309;28;20176;-72
2022/08/12 18:20:11;;;;;;;4.25;1.77;;;24.60;43.60;;;;;;5069011;28;20274;-72
2022/08/12 18:22:37;;;;;;;3.03;1.10;;;24.40;43.90;;;;;;5068875;28;20201;-72
2022/08/12 18:25:06;;;;;;;3.13;1.35;;;24.30;44.30;;;;;;5068906;28;20169;-72
2022/08/12 18:27:34;;;;;;;3.45;1.27;;;24.30;44.70;;;;;;5069135;28;20566;-72
2022/08/12 18:30:00;;;;;;;5.78;1.50;;;24.30;44.80;;;;;;5069677;28;20201;-72
2022/08/12 18:32:26;;;;;;;1.40;1.30;;;24.20;45.50;;;;;;5068716;28;20194;-72
2022/08/12 18:34:57;;;;;;;7.18;1.45;;;24.10;45.90;;;;;;5070082;28;20256;-72
2022/08/12 18:37:27;;;;;;;1.83;1.42;;;24.00;46.20;;;;;;5069628;28;20169;-72
2022/08/12 18:42:46;;;;;;;3.10;1.50;;;23.80;47.10;;;;;;5069887;28;20217;-72
2022/08/12 18:45:17;;;;;;;2.70;1.50;;;23.80;47.40;;;;;;5068719;28;20268;-72
2022/08/12 18:47:45;;;;;;;3.83;1.50;;;23.80;47.40;;;;;;5068783;28;20174;-72
2022/08/12 18:50:12;;;;;;;2.75;1.63;;;23.80;47.50;;;;;;5068342;28;20256;-72
2022/08/12 18:52:41;;;;;;;3.15;1.63;;;23.70;47.90;;;;;;5068182;28;20194;-72
2022/08/12 18:55:12;;;;;;;12.02;1.65;;;23.60;48.00;;;;;;5069740;28;20223;-72
2022/08/12 18:57:41;;;;;;;3.83;1.50;;;23.50;48.30;;;;;;5069139;28;20178;-72
2022/08/12 19:00:08;;;;;;;2.47;1.58;;;23.50;48.50;;;;;;5064808;28;20178;-72
2022/08/12 19:02:38;;;;;;;3.75;1.67;;;23.40;48.70;;;;;;5056082;28;20194;-72
2022/08/12 19:05:08;;;;;;;3.45;1.60;;;23.30;48.90;;;;;;5056412;28;20170;-72
2022/08/12 19:07:39;;;;;;;2.95;1.50;;;23.30;49.10;;;;;;5056121;28;20174;-72
2022/08/12 19:10:07;;;;;;;1.60;1.50;;;23.20;49.20;;;;;;5056520;28;20213;-72
2022/08/12 19:15:16;;;;;;;3.00;1.60;;;23.00;49.70;;;;;;5056469;28;20238;-72
2022/08/12 19:17:44;;;;;;;2.05;1.30;;;22.80;50.10;;;;;;5054709;28;20629;-72
2022/08/12 19:20:11;;;;;;;1.70;1.42;;;22.60;50.50;;;;;;5055574;28;20216;-72
2022/08/12 19:22:37;;;;;;;1.85;1.55;;;22.50;50.80;;;;;;5054530;28;20688;-72
2022/08/12 19:25:20;;;;;;;2.55;1.67;;;22.40;51.00;;;;;;5054868;28;20273;-72
2022/08/12 19:27:52;;;;;;;6.15;1.58;;;22.30;51.30;;;;;;5054497;28;20269;-72
2022/08/12 19:33:16;;;;;;;1.42;1.33;;;22.00;51.60;;;;;;5055810;28;20708;-72
2022/08/12 19:35:42;;;;;;;2.08;1.50;;;21.90;52.10;;;;;;5055883;28;20185;-72
2022/08/12 19:38:11;;;;;;;2.53;1.40;;;21.80;52.30;;;;;;5054334;28;20257;-72
2022/08/12 19:40:39;;;;;;;5.40;1.45;;;21.70;52.60;;;;;;5054240;28;20327;-72
2022/08/12 19:43:12;;;;;;;3.22;1.45;;;21.70;52.90;;;;;;5054084;28;20198;-72
2022/08/12 19:45:41;;;;;;;1.85;1.35;;;21.60;53.20;;;;;;5055451;28;20155;-72
2022/08/12 19:48:12;;;;;;;1.65;1.50;;;21.50;53.40;;;;;;5055149;28;20163;-72
2022/08/12 19:50:39;;;;;;;2.33;1.52;;;21.50;53.70;;;;;;5055376;28;20159;-72
2022/08/12 19:53:05;;;;;;;4.25;1.52;;;21.40;54.00;;;;;;5053915;28;20236;-72
2022/08/12 19:55:37;;;;;;;1.95;1.35;;;21.30;54.20;;;;;;5055203;28;20271;-72
2022/08/12 19:58:06;;;;;;;5.18;1.50;;;21.30;54.50;;;;;;5053982;28;20174;-72
2022/08/12 20:00:33;;;;;;;4.10;1.70;;;21.10;54.70;;;;;;5054217;28;20197;-72
2022/08/12 20:02:59;;;;;;;4.60;1.70;;;21.00;55.10;;;;;;5054054;28;20221;-72
2022/08/12 20:05:26;;;;;;;3.70;1.75;;;20.90;55.90;;;;;;5053865;28;20672;-72
2022/08/12 20:07:53;;;;;;;4.50;1.60;;;20.70;56.50;;;;;;5054961;28;20166;-72
2022/08/12 20:10:20;;;;;;;5.45;1.65;;;20.60;56.70;;;;;;5053636;28;20222;-72
2022/08/12 20:12:46;;;;;;;1.88;1.60;;;20.60;56.90;;;;;;5053008;28;20198;-72
2022/08/12 20:15:14;;;;;;;1.65;1.55;;;20.50;57.10;;;;;;5054343;28;20183;-72
2022/08/12 20:17:39;;;;;;;4.35;1.40;;;20.40;57.50;;;;;;5053639;28;20206;-71
2022/08/12 20:20:08;;;;;;;11.00;1.88;;;20.30;57.50;;;;;;5053417;28;20178;-71
2022/08/12 20:22:34;;;;;;;3.83;2.03;;;20.30;57.70;;;;;;5053739;28;20692;-71
2022/08/12 20:25:05;;;;;;;2.78;1.33;;;20.20;57.70;;;;;;5053465;28;20667;-71
2022/08/12 20:27:32;;;;;;;5.97;1.60;;;20.10;57.70;;;;;;5055094;28;20165;-71
2022/08/12 20:29:58;;;;;;;5.05;1.80;;;20.10;57.90;;;;;;5054152;28;20251;-71
2022/08/12 20:32:25;;;;;;;4.72;1.80;;;20.10;58.00;;;;;;5053969;28;20190;-71
2022/08/12 20:34:53;;;;;;;1.98;1.70;;;20.00;58.40;;;;;;5054323;28;20292;-71
2022/08/12 20:37:18;;;;;;;2.53;1.58;;;20.00;58.50;;;;;;5053467;28;20216;-71
2022/08/12 20:39:45;;;;;;;2.80;1.70;;;19.90;59.20;;;;;;5053178;28;20232;-72
2022/08/12 20:42:10;;;;;;;1.95;1.52;;;19.90;58.90;;;;;;5054642;28;20217;-72
2022/08/12 20:44:39;;;;;;;2.78;1.42;;;19.90;58.90;;;;;;5052976;28;20652;-71
2022/08/12 20:50:18;;;;;;;5.38;1.80;;;19.90;59.10;;;;;;5054834;28;20214;-72
2022/08/12 20:52:45;;;;;;;2.65;1.48;;;19.90;59.30;;;;;;5052831;28;20194;-71
2022/08/12 20:55:11;;;;;;;4.28;1.73;;;19.80;59.60;;;;;;5052887;28;20213;-72
2022/08/12 20:57:37;;;;;;;2.10;1.63;;;19.80;59.60;;;;;;5052858;28;20233;-71
2022/08/12 21:00:07;;;;;;;3.50;1.60;;;19.80;59.90;;;;;;5053097;28;20189;-72
2022/08/12 21:02:33;;;;;;;3.50;1.73;;;19.70;59.90;;;;;;5052705;28;20198;-71
2022/08/12 21:07:45;;;;;;;1.83;1.70;;;19.70;60.40;;;;;;5054458;28;20536;-71
2022/08/12 21:10:11;;;;;;;7.78;1.95;;;19.70;60.40;;;;;;5054013;28;20202;-71
2022/08/12 21:12:36;;;;;;;3.92;1.70;;;19.70;60.60;;;;;;5053016;28;20692;-71
2022/08/12 21:15:07;;;;;;;2.35;1.65;;;19.70;60.70;;;;;;5053035;28;20633;-71
2022/08/12 21:17:34;;;;;;;3.03;1.60;;;19.80;60.70;;;;;;5052584;28;20173;-71
2022/08/12 21:20:05;;;;;;;1.75;1.63;;;19.80;60.80;;;;;;5052499;28;20228;-71
2022/08/12 21:22:37;;;;;;;1.98;1.88;;;19.80;60.80;;;;;;5052608;28;20202;-72
2022/08/12 21:25:04;;;;;;;4.32;1.63;;;19.70;61.00;;;;;;5053358;28;20192;-71
2022/08/12 21:27:30;;;;;;;1.88;1.77;;;19.80;61.00;;;;;;5053403;28;20170;-71
2022/08/12 21:29:56;;;;;;;2.65;1.70;;;19.90;61.30;;;;;;5053335;28;20221;-71
2022/08/12 21:32:29;;;;;;;3.92;1.80;;;19.80;61.20;;;;;;5052395;28;20197;-71
2022/08/12 21:34:55;;;;;;;4.15;1.77;;;19.70;62.20;;;;;;5053128;28;20253;-72
2022/08/12 21:37:21;;;;;;;1.60;1.50;;;19.70;63.80;;;;;;5052459;28;20212;-71
2022/08/12 21:39:46;;;;;;;4.30;1.75;;;19.60;63.30;;;;;;5052214;28;20201;-71
2022/08/12 21:42:12;;;;;;;2.80;1.77;;;19.40;63.30;;;;;;5052459;28;20736;-71
2022/08/12 21:44:38;;;;;;;4.72;1.75;;;19.40;63.30;;;;;;5053569;28;20182;-71
2022/08/12 21:47:13;;;;;;;2.78;1.70;;;19.40;62.90;;;;;;5052105;28;20205;-70
2022/08/12 21:49:38;;;;;;;1.90;1.80;;;19.30;63.10;;;;;;5052191;28;20216;-70
2022/08/12 21:52:07;;;;;;;1.80;1.70;;;19.20;63.50;;;;;;5053232;28;20259;-70
2022/08/12 21:55:12;;;;;;;3.75;1.80;;;19.10;63.50;;;;;;5053467;28;20166;-70
2022/08/12 21:58:21;;;;;;;2.95;1.55;;;19.10;63.90;;;;;;5053069;28;20169;-70
2022/08/12 22:00:56;;;;;;;3.90;1.83;;;18.90;64.60;;;;;;5052324;28;20629;-70
2022/08/12 22:06:45;;;;;;;4.38;1.70;;;18.70;65.40;;;;;;5053401;28;20211;-70
2022/08/12 22:09:11;;;;;;;1.92;1.80;;;18.60;66.20;;;;;;5051887;28;20201;-70
2022/08/12 22:11:37;;;;;;;5.57;2.03;;;18.60;67.10;;;;;;5053042;28;20191;-70
2022/08/12 22:14:07;;;;;;;2.97;2.00;;;18.50;66.50;;;;;;5051882;28;20558;-70
2022/08/12 22:16:32;;;;;;;8.52;2.20;;;18.50;67.10;;;;;;5053276;28;20167;-70
2022/08/12 22:22:22;;;;;;;7.55;1.85;;;18.40;67.40;;;;;;5053211;28;20277;-70
2022/08/12 22:24:48;;;;;;;2.55;1.90;;;18.40;67.40;;;;;;5052200;28;20178;-70
2022/08/12 22:27:18;;;;;;;5.20;1.80;;;18.40;67.70;;;;;;5051726;28;20248;-70
2022/08/12 22:32:48;;;;;;;6.35;2.15;;;18.30;68.00;;;;;;5053120;28;20232;-70
2022/08/12 22:35:34;;;;;;;5.53;1.88;;;18.20;68.20;;;;;;5053113;28;20257;-70
2022/08/12 22:38:19;;;;;;;4.53;2.00;;;18.10;68.30;;;;;;5041814;28;20170;-71
2022/08/12 22:40:49;;;;;;;7.15;2.05;;;18.10;68.90;;;;;;5055493;28;20205;-71
2022/08/12 22:49:04;;;;;;;7.05;1.95;;;17.90;70.00;;;;;;5074482;28;20817;-71
2022/08/12 22:51:29;;;;;;;2.15;2.00;;;17.90;70.20;;;;;;5056565;28;20722;-71
2022/08/12 22:53:55;;;;;;;5.72;2.25;;;17.90;70.30;;;;;;5056667;28;20182;-71
2022/08/12 22:56:34;;;;;;;2.92;1.95;;;17.80;70.90;;;;;;5055313;28;20185;-71
2022/08/12 22:59:35;;;;;;;3.85;2.25;;;17.70;71.50;;;;;;5056257;28;20198;-72
2022/08/12 23:02:01;;;;;;;5.85;2.40;;;17.60;72.00;;;;;;5055600;28;20190;-71
2022/08/12 23:04:27;;;;;;;4.10;2.22;;;17.60;72.60;;;;;;5055941;28;20655;-71
2022/08/12 23:07:15;;;;;;;2.30;2.10;;;17.60;72.80;;;;;;5054884;28;20192;-71
2022/08/12 23:09:41;;;;;;;5.47;2.40;;;17.50;73.10;;;;;;5055716;28;20657;-71
2022/08/12 23:12:07;;;;;;;4.53;2.20;;;17.40;73.30;;;;;;5055929;28;20213;-71
2022/08/12 23:14:34;;;;;;;2.40;2.20;;;17.40;73.50;;;;;;5055020;28;20185;-71
2022/08/12 23:17:00;;;;;;;2.28;2.08;;;17.40;73.60;;;;;;5054662;28;20194;-71
2022/08/12 23:19:30;;;;;;;3.90;2.65;;;17.40;74.00;;;;;;5054519;28;20259;-71
2022/08/12 23:22:01;;;;;;;8.48;2.20;;;17.40;74.40;;;;;;5054539;28;20285;-71
2022/08/12 23:24:33;;;;;;;6.25;2.63;;;17.30;74.60;;;;;;5056306;28;20162;-71
2022/08/12 23:30:12;;;;;;;2.70;2.38;;;17.30;74.80;;;;;;5056041;28;20185;-71
2022/08/12 23:32:38;;;;;;;5.63;2.10;;;17.20;75.00;;;;;;5054315;28;20251;-71
2022/08/12 23:35:06;;;;;;;2.85;2.20;;;17.30;75.20;;;;;;5054341;28;20178;-71
2022/08/12 23:37:31;;;;;;;5.63;2.30;;;17.20;75.00;;;;;;5055507;28;20185;-71
2022/08/12 23:39:57;;;;;;;4.75;2.20;;;17.30;75.30;;;;;;5054137;28;20202;-71
2022/08/12 23:42:32;;;;;;;2.88;2.17;;;17.20;75.50;;;;;;5054086;28;20281;-71
2022/08/12 23:44:59;;;;;;;6.60;2.10;;;17.10;75.60;;;;;;5055415;28;20165;-71
2022/08/12 23:47:25;;;;;;;4.15;2.20;;;17.20;75.50;;;;;;5054028;28;20657;-71
2022/08/12 23:49:51;;;;;;;2.35;1.90;;;17.20;75.50;;;;;;5055459;28;20201;-71
2022/08/12 23:52:18;;;;;;;4.03;2.10;;;17.10;75.70;;;;;;5053961;28;20209;-71
2022/08/12 23:54:43;;;;;;;3.95;2.20;;;17.20;75.90;;;;;;5055531;28;20190;-71
2022/08/12 23:57:15;;;;;;;3.38;2.42;;;17.20;76.20;;;;;;5053891;28;20179;-71
2022/08/12 23:59:48;;;;;;;2.35;2.03;;;17.20;76.40;;;;;;5053791;28;20687;-71
